Terminal Aerodrome Forecast
Issued by NWS

Home | Current Version | Previous Version | Text Only | Print | Product List | Glossary On
Versions: 1 2 3 4 5 6 7 8 9 10 11 12 13 14 15 16 17
000
FTUS46 KMTR 271700
TAFSTS
TAF
KSTS 271734Z 2718/2818 18005KT P6SM FEW010
     FM272300 21012G18KT P6SM FEW150
     FM280400 VRB03KT P6SM BKN010
     FM281200 VRB02KT 1/2SM FG VV002=

USA.gov is the U.S. government's official web portal to all federal, state and local government web resources and services.